createdAt,value
2019-06-10T00:00:55.463Z,100460.45
2019-06-10T00:03:45.568Z,100462.06
2019-06-10T00:06:36.277Z,100453.81
2019-06-10T00:09:26.093Z,100452.99
2019-06-10T00:12:16.241Z,100458.15
2019-06-10T00:15:07.800Z,100443.61
2019-06-10T00:18:20.839Z,100443.09
2019-06-10T00:20:51.299Z,100431.79
2019-06-10T00:23:41.409Z,100432.38
2019-06-10T00:26:31.265Z,100431.23
2019-06-10T00:29:22.247Z,100429.86
2019-06-10T00:32:13.379Z,100430.37
2019-06-10T00:35:04.663Z,100424.88
2019-06-10T00:37:54.868Z,100432.58
2019-06-10T00:40:45.182Z,100424.60
2019-06-10T00:43:34.984Z,100418.24
2019-06-10T00:46:24.789Z,100417.94
2019-06-10T00:49:15.117Z,100413.50
2019-06-10T00:52:06.226Z,100411.02
2019-06-10T00:54:56.938Z,100402.22
2019-06-10T00:57:46.956Z,100399.71
2019-06-10T01:00:37.315Z,100404.62
2019-06-10T01:03:27.026Z,100404.11
2019-06-10T01:06:16.546Z,100399.13
2019-06-10T01:09:11.460Z,100394.17
2019-06-10T01:12:01.243Z,100397.20
2019-06-10T01:14:51.768Z,100397.44
2019-06-10T01:17:41.823Z,100399.91
2019-06-10T01:20:32.516Z,100395.52
2019-06-10T01:23:22.872Z,100408.16
2019-06-10T01:26:16.264Z,100399.09
2019-06-10T01:29:05.655Z,100386.16
2019-06-10T01:31:55.518Z,100398.95
2019-06-10T01:34:45.885Z,100405.83
2019-06-10T01:37:35.635Z,100408.34
2019-06-10T01:40:25.646Z,100408.22
2019-06-10T01:43:17.292Z,100395.47
2019-06-10T01:46:06.787Z,100384.38
2019-06-10T01:48:56.582Z,100359.30
2019-06-10T01:51:46.402Z,100370.97
2019-06-10T01:54:36.649Z,100380.16
2019-06-10T01:57:26.550Z,100385.73
2019-06-10T02:00:25.114Z,100383.94
2019-06-10T02:03:13.305Z,100391.41
2019-06-10T02:06:01.818Z,100385.73
2019-06-10T02:08:55.293Z,100381.45
2019-06-10T02:11:45.596Z,100384.40
2019-06-10T02:14:35.816Z,100373.87
2019-06-10T02:17:25.420Z,100377.34
2019-06-10T02:20:16.889Z,100373.08
2019-06-10T02:23:07.606Z,100353.20
2019-06-10T02:25:57.187Z,100331.64
2019-06-10T02:28:46.911Z,100329.82
2019-06-10T02:31:37.987Z,100327.43
2019-06-10T02:34:28.129Z,100318.28
2019-06-10T02:37:22.445Z,100320.31
2019-06-10T02:40:10.186Z,100311.91
2019-06-10T02:43:03.518Z,100309.75
2019-06-10T02:45:53.177Z,100312.80
2019-06-10T02:48:43.711Z,100304.33
2019-06-10T02:51:35.715Z,100298.89
2019-06-10T02:54:31.527Z,100295.59
2019-06-10T02:57:18.837Z,100291.53
2019-06-10T03:00:20.811Z,100286.59
2019-06-10T03:03:04.134Z,100290.98
2019-06-10T03:05:54.398Z,100291.82
2019-06-10T03:08:44.201Z,100281.42
2019-06-10T03:11:37.206Z,100287.72
2019-06-10T03:14:26.154Z,100285.52
2019-06-10T03:17:19.850Z,100286.88
2019-06-10T03:20:12.146Z,100283.05
2019-06-10T03:23:03.015Z,100288.23
2019-06-10T03:26:04.165Z,100292.06
2019-06-10T03:28:54.108Z,100295.58
2019-06-10T03:31:48.043Z,100297.78
2019-06-10T03:34:41.691Z,100298.05
2019-06-10T03:37:28.105Z,100297.46
2019-06-10T03:40:18.621Z,100298.27
2019-06-10T03:43:11.836Z,100291.14
2019-06-10T03:46:02.953Z,100299.34
2019-06-10T03:48:53.588Z,100300.16
2019-06-10T03:51:43.204Z,100308.05
2019-06-10T03:54:32.914Z,100303.64
2019-06-10T03:57:24.191Z,100312.95
2019-06-10T04:00:14.692Z,100327.17
2019-06-10T04:03:04.722Z,100318.13
2019-06-10T04:05:54.788Z,100310.47
2019-06-10T04:08:44.624Z,100305.52
2019-06-10T04:11:35.512Z,100297.58
2019-06-10T04:14:26.802Z,100293.72
2019-06-10T04:17:17.795Z,100287.44
2019-06-10T04:20:12.386Z,100286.60
2019-06-10T04:22:59.907Z,100295.59
2019-06-10T04:25:49.832Z,100306.53
2019-06-10T04:28:39.921Z,100307.64
2019-06-10T04:31:29.750Z,100299.95
2019-06-10T04:34:20.465Z,100293.63
2019-06-10T04:37:12.427Z,100294.44
2019-06-10T04:40:02.838Z,100281.27
2019-06-10T04:42:53.076Z,100271.09
2019-06-10T04:45:43.903Z,100279.59
2019-06-10T04:48:33.846Z,100293.81
2019-06-10T04:51:26.463Z,100295.40
2019-06-10T04:54:15.444Z,100305.48
2019-06-10T04:57:05.716Z,100304.11
2019-06-10T04:59:55.838Z,100289.81
2019-06-10T05:02:45.967Z,100286.23
2019-06-10T05:05:35.504Z,100270.86
2019-06-10T05:08:26.898Z,100258.81
2019-06-10T05:11:17.457Z,100259.05
2019-06-10T05:14:07.597Z,100261.23
2019-06-10T05:16:57.666Z,100260.64
2019-06-10T05:19:48.068Z,100267.67
2019-06-10T05:22:38.076Z,100271.13
2019-06-10T05:25:28.471Z,100273.47
2019-06-10T05:28:18.147Z,100273.63
2019-06-10T05:31:08.061Z,100271.84
2019-06-10T05:33:58.508Z,100285.17
2019-06-10T05:36:48.859Z,100290.86
2019-06-10T05:39:39.079Z,100281.44
2019-06-10T05:42:29.642Z,100279.15
2019-06-10T05:45:24.478Z,100277.72
2019-06-10T05:48:16.603Z,100286.12
2019-06-10T05:51:06.912Z,100276.97
2019-06-10T05:53:56.771Z,100279.31
2019-06-10T05:56:46.655Z,100274.86
2019-06-10T05:59:36.735Z,100276.37
2019-06-10T06:02:26.321Z,100271.05
2019-06-10T06:05:16.400Z,100269.52
2019-06-10T06:08:08.883Z,100263.53
2019-06-10T06:10:57.957Z,100265.30
2019-06-10T06:13:47.947Z,100259.92
2019-06-10T06:16:38.380Z,100262.86
2019-06-10T06:19:28.212Z,100256.92
2019-06-10T06:22:18.513Z,100251.58
2019-06-10T06:25:14.681Z,100256.12
2019-06-10T06:28:02.966Z,100250.77
2019-06-10T06:30:53.172Z,100257.32
2019-06-10T06:33:44.615Z,100264.20
2019-06-10T06:36:36.302Z,100266.12
2019-06-10T06:39:27.041Z,100263.11
2019-06-10T06:42:17.019Z,100262.05
2019-06-10T06:45:08.446Z,100267.27
2019-06-10T06:47:58.128Z,100264.52
2019-06-10T06:51:01.838Z,100260.11
2019-06-10T06:53:50.965Z,100254.81
2019-06-10T06:56:34.515Z,100259.98
2019-06-10T06:59:22.452Z,100261.03
2019-06-10T07:02:14.465Z,100256.55
2019-06-10T07:05:04.523Z,100252.32
2019-06-10T07:07:56.662Z,100250.27
2019-06-10T07:10:47.837Z,100249.86
2019-06-10T07:13:45.531Z,100251.64
2019-06-10T07:16:34.600Z,100252.36
2019-06-10T07:19:24.322Z,100251.07
2019-06-10T07:22:16.299Z,100243.22
2019-06-10T07:25:06.950Z,100240.86
2019-06-10T07:27:56.796Z,100244.02
2019-06-10T07:30:51.715Z,100240.55
2019-06-10T07:33:40.903Z,100237.30
2019-06-10T07:36:32.514Z,100235.58
2019-06-10T07:39:22.712Z,100233.51
2019-06-10T07:42:13.609Z,100229.81
2019-06-10T07:45:03.376Z,100228.53
2019-06-10T07:47:56.037Z,100225.84
2019-06-10T07:50:45.990Z,100221.88
2019-06-10T07:53:36.962Z,100221.70
2019-06-10T07:56:30.599Z,100227.09
2019-06-10T07:59:19.056Z,100225.59
2019-06-10T08:02:09.278Z,100221.56
2019-06-10T08:04:59.145Z,100218.33
2019-06-10T08:07:49.438Z,100221.95
2019-06-10T08:10:39.134Z,100227.27
2019-06-10T08:13:29.117Z,100226.55
2019-06-10T08:16:19.166Z,100223.66
2019-06-10T08:19:28.987Z,100215.26
2019-06-10T08:22:02.967Z,100217.22
2019-06-10T08:24:53.718Z,100212.06
2019-06-10T08:27:45.999Z,100217.45
2019-06-10T08:30:35.630Z,100206.01
2019-06-10T08:33:26.037Z,100212.77
2019-06-10T08:36:16.045Z,100220.37
2019-06-10T08:39:07.864Z,100227.04
2019-06-10T08:41:58.237Z,100221.56
2019-06-10T08:44:48.640Z,100229.86
2019-06-10T08:47:39.186Z,100222.41
2019-06-10T08:50:29.393Z,100229.66
2019-06-10T08:53:22.790Z,100239.66
2019-06-10T08:56:13.299Z,100232.68
2019-06-10T08:59:03.396Z,100236.63
2019-06-10T09:01:56.895Z,100244.34
2019-06-10T09:04:48.819Z,100237.66
2019-06-10T09:07:38.193Z,100236.70
2019-06-10T09:10:29.092Z,100227.77
2019-06-10T09:13:22.263Z,100225.88
2019-06-10T09:16:18.536Z,100222.33
2019-06-10T09:19:04.215Z,100220.17
2019-06-10T09:21:56.379Z,100221.19
2019-06-10T09:24:49.400Z,100227.96
2019-06-10T09:27:37.616Z,100230.29
2019-06-10T09:30:28.155Z,100228.72
2019-06-10T09:33:18.457Z,100230.57
2019-06-10T09:36:08.404Z,100236.02
2019-06-10T09:38:58.506Z,100239.83
2019-06-10T09:41:57.746Z,100232.43
2019-06-10T09:44:44.318Z,100238.54
2019-06-10T09:47:34.205Z,100239.55
2019-06-10T09:50:47.027Z,100245.69
2019-06-10T09:53:41.267Z,100247.55
2019-06-10T09:56:24.885Z,100249.41
2019-06-10T09:59:16.691Z,100246.19
2019-06-10T10:02:07.411Z,100246.19
2019-06-10T10:04:58.607Z,100245.66
2019-06-10T10:07:52.028Z,100245.81
2019-06-10T10:10:45.971Z,100244.98
2019-06-10T10:13:35.544Z,100242.84
2019-06-10T10:16:27.387Z,100236.56
2019-06-10T10:19:17.889Z,100237.58
2019-06-10T10:22:10.912Z,100245.31
2019-06-10T10:25:02.828Z,100247.30
2019-06-10T10:27:57.219Z,100241.70
2019-06-10T10:30:46.026Z,100242.41
2019-06-10T10:33:35.480Z,100249.52
2019-06-10T10:36:25.977Z,100229.84
2019-06-10T10:39:16.231Z,100231.45
2019-06-10T10:42:06.816Z,100233.52
2019-06-10T10:44:59.058Z,100230.81
2019-06-10T10:47:49.018Z,100227.00
2019-06-10T10:50:38.968Z,100219.36
2019-06-10T10:53:29.426Z,100216.06
2019-06-10T10:56:22.167Z,100214.57
2019-06-10T10:59:13.310Z,100210.03
2019-06-10T11:02:02.830Z,100199.93
2019-06-10T11:04:56.445Z,100197.27
2019-06-10T11:07:47.730Z,100190.44
2019-06-10T11:10:38.365Z,100189.63
2019-06-10T11:13:33.317Z,100178.66
2019-06-10T11:16:22.894Z,100180.38
2019-06-10T11:19:13.390Z,100175.27
2019-06-10T11:22:03.982Z,100175.95
2019-06-10T11:24:56.185Z,100177.73
2019-06-10T11:27:46.379Z,100172.00
2019-06-10T11:30:36.280Z,100165.16
2019-06-10T11:33:26.901Z,100155.53
2019-06-10T11:36:17.075Z,100156.72
2019-06-10T11:39:09.255Z,100156.94
2019-06-10T11:41:59.448Z,100155.22
2019-06-10T11:44:50.737Z,100148.71
2019-06-10T11:47:42.592Z,100146.13
2019-06-10T11:50:33.494Z,100137.39
2019-06-10T11:53:23.860Z,100132.22
2019-06-10T11:56:14.161Z,100133.92
2019-06-10T11:59:09.470Z,100115.22
2019-06-10T12:01:59.655Z,100112.06
2019-06-10T12:04:48.373Z,100100.95
2019-06-10T12:07:38.979Z,100101.12
2019-06-10T12:10:29.126Z,100103.33
2019-06-10T12:13:19.271Z,100102.17
2019-06-10T12:19:03.576Z,100100.25
2019-06-10T12:21:56.422Z,100092.75
2019-06-10T12:24:44.933Z,100084.67
2019-06-10T12:27:35.309Z,100080.00
2019-06-10T12:30:25.933Z,100083.39
2019-06-10T12:33:21.289Z,100075.55
2019-06-10T12:36:07.786Z,100074.63
2019-06-10T12:39:10.864Z,100068.16
2019-06-10T12:42:04.008Z,100062.97
2019-06-10T12:44:54.449Z,100064.41
2019-06-10T12:47:44.925Z,100054.88
2019-06-10T12:50:36.656Z,100045.16
2019-06-10T12:53:26.755Z,100042.24
2019-06-10T12:56:16.756Z,100039.85
2019-06-10T12:59:09.965Z,100030.70
2019-06-10T13:02:06.749Z,100023.14
2019-06-10T13:04:52.312Z,100019.00
2019-06-10T13:07:46.103Z,100020.92
2019-06-10T13:10:42.952Z,100016.41
2019-06-10T13:13:33.315Z,100011.28
2019-06-10T13:16:23.381Z,100005.16
2019-06-10T13:19:13.525Z,100004.59
2019-06-10T13:22:05.705Z,99998.86
2019-06-10T13:24:56.480Z,99998.09
2019-06-10T13:27:46.898Z,99996.52
2019-06-10T13:30:37.007Z,99984.69
2019-06-10T13:33:27.250Z,99977.62
2019-06-10T13:36:17.277Z,99973.16
2019-06-10T13:39:10.547Z,99969.67
2019-06-10T13:42:03.245Z,99977.59
2019-06-10T13:44:52.283Z,99978.16
2019-06-10T13:47:43.785Z,99967.75
2019-06-10T13:50:33.588Z,99967.02
2019-06-10T13:53:23.260Z,99961.30
2019-06-10T13:56:37.804Z,99962.89
2019-06-10T13:59:07.756Z,99959.81
2019-06-10T14:01:56.179Z,99969.20
2019-06-10T14:04:46.282Z,99963.23
2019-06-10T14:07:37.306Z,99960.35
2019-06-10T14:10:27.466Z,99958.97
2019-06-10T14:13:17.580Z,99968.58
2019-06-10T14:16:07.641Z,99958.53
2019-06-10T14:18:57.682Z,99954.19
2019-06-10T14:21:47.878Z,99945.72
2019-06-10T14:24:38.069Z,99940.80
2019-06-10T14:27:28.120Z,99944.58
2019-06-10T14:30:19.749Z,99942.65
2019-06-10T14:33:09.683Z,99944.27
2019-06-10T14:35:59.751Z,99941.09
2019-06-10T14:38:49.736Z,99939.59
2019-06-10T14:41:39.740Z,99946.08
2019-06-10T14:44:29.410Z,99936.06
2019-06-10T14:47:19.063Z,99933.42
2019-06-10T14:50:13.221Z,99933.48
2019-06-10T14:53:02.328Z,99932.20
2019-06-10T14:55:53.585Z,99934.20
2019-06-10T14:58:43.464Z,99935.06
2019-06-10T15:01:33.343Z,99925.84
2019-06-10T15:04:23.330Z,99921.11
2019-06-10T15:07:13.655Z,99917.77
2019-06-10T15:10:03.584Z,99921.02
2019-06-10T15:12:53.609Z,99904.59
2019-06-10T15:15:43.673Z,99904.32
2019-06-10T15:18:33.216Z,99897.62
2019-06-10T15:21:23.413Z,99893.31
2019-06-10T15:24:13.994Z,99878.41
2019-06-10T15:27:13.090Z,99873.25
2019-06-10T15:29:55.923Z,99868.72
2019-06-10T15:32:46.236Z,99861.47
2019-06-10T15:35:36.225Z,99863.30
2019-06-10T15:38:25.965Z,99874.86
2019-06-10T15:41:19.861Z,99869.03
2019-06-10T15:44:09.641Z,99866.80
2019-06-10T15:47:02.911Z,99860.52
2019-06-10T15:49:53.320Z,99859.04
2019-06-10T15:52:59.275Z,99855.51
2019-06-10T15:56:10.220Z,99866.22
2019-06-10T15:58:42.883Z,99861.02
2019-06-10T16:01:32.738Z,99854.41
2019-06-10T16:04:25.731Z,99863.37
2019-06-10T16:07:15.919Z,99869.73
2019-06-10T16:10:06.755Z,99869.97
2019-06-10T16:12:56.020Z,99873.91
2019-06-10T16:15:45.368Z,99871.59
2019-06-10T16:18:35.288Z,99866.38
2019-06-10T16:21:25.282Z,99863.23
2019-06-10T16:24:16.829Z,99863.59
2019-06-10T16:27:06.804Z,99871.75
2019-06-10T16:29:56.609Z,99864.34
2019-06-10T16:32:46.599Z,99870.41
2019-06-10T16:35:36.682Z,99878.48
2019-06-10T16:38:27.327Z,99876.45
2019-06-10T16:41:17.614Z,99876.59
2019-06-10T16:44:07.353Z,99881.20
2019-06-10T16:46:57.128Z,99875.41
2019-06-10T16:49:46.775Z,99880.97
2019-06-10T16:52:36.551Z,99884.37
2019-06-10T16:55:27.217Z,99882.36
2019-06-10T16:58:18.310Z,99877.84
2019-06-10T17:01:08.616Z,99879.09
2019-06-10T17:03:58.367Z,99880.48
2019-06-10T17:06:47.958Z,99887.44
2019-06-10T17:09:38.190Z,99893.22
2019-06-10T17:12:28.631Z,99894.03
2019-06-10T17:15:19.057Z,99896.96
2019-06-10T17:18:08.690Z,99892.58
2019-06-10T17:20:58.795Z,99887.50
2019-06-10T17:23:48.455Z,99890.43
2019-06-10T17:26:38.462Z,99884.56
2019-06-10T17:29:29.250Z,99882.97
2019-06-10T17:32:19.780Z,99876.73
2019-06-10T17:35:12.511Z,99864.55
2019-06-10T17:38:02.753Z,99852.30
2019-06-10T17:40:53.099Z,99847.98
2019-06-10T17:43:43.220Z,99852.77
2019-06-10T17:46:35.175Z,99852.45
2019-06-10T17:49:26.777Z,99860.31
2019-06-10T17:52:16.567Z,99858.53
2019-06-10T17:55:07.620Z,99866.52
2019-06-10T17:57:57.504Z,99876.06
2019-06-10T18:00:47.793Z,99861.47
2019-06-10T18:03:39.974Z,99847.30
2019-06-10T18:06:29.862Z,99834.95
2019-06-10T18:09:19.548Z,99840.67
2019-06-10T18:12:09.377Z,99851.88
2019-06-10T18:14:58.778Z,99857.53
2019-06-10T18:17:48.743Z,99858.55
2019-06-10T18:20:38.290Z,99844.27
2019-06-10T18:23:28.501Z,99842.56
2019-06-10T18:26:18.602Z,99836.12
2019-06-10T18:29:09.626Z,99827.91
2019-06-10T18:32:00.382Z,99826.23
2019-06-10T18:34:52.089Z,99820.95
2019-06-10T18:37:42.288Z,99793.91
2019-06-10T18:40:33.496Z,99784.40
2019-06-10T18:43:23.262Z,99774.95
2019-06-10T18:46:13.458Z,99798.15
2019-06-10T18:49:03.500Z,99837.31
2019-06-10T18:51:53.656Z,99868.34
2019-06-10T18:54:43.795Z,99879.16
2019-06-10T18:57:36.532Z,99870.42
2019-06-10T19:00:40.317Z,99865.01
2019-06-10T19:03:18.466Z,99873.54
2019-06-10T19:06:08.403Z,99901.21
2019-06-10T19:08:59.242Z,99931.27
2019-06-10T19:11:49.272Z,99967.97
2019-06-10T19:14:39.891Z,99991.13
2019-06-10T19:17:33.135Z,99985.08
2019-06-10T19:20:23.484Z,100001.48
2019-06-10T19:23:16.376Z,100030.91
2019-06-10T19:26:06.204Z,100036.13
2019-06-10T19:28:57.453Z,99998.67
2019-06-10T19:31:48.073Z,99993.75
2019-06-10T19:34:38.019Z,99992.52
2019-06-10T19:37:28.127Z,99996.08
2019-06-10T19:40:17.813Z,99992.38
2019-06-10T19:43:07.594Z,99990.12
2019-06-10T19:45:57.994Z,100008.48
2019-06-10T19:48:56.840Z,100015.23
2019-06-10T19:51:39.236Z,99998.20
2019-06-10T19:54:31.888Z,99969.81
2019-06-10T19:57:21.928Z,99928.32
2019-06-10T20:00:13.018Z,99895.37
2019-06-10T20:03:03.351Z,99857.68
2019-06-10T20:05:53.500Z,99843.88
2019-06-10T20:08:46.023Z,99825.41
2019-06-10T20:11:36.132Z,99802.03
2019-06-10T20:14:26.182Z,99810.80
2019-06-10T20:17:15.951Z,99813.66
2019-06-10T20:20:07.037Z,99812.28
2019-06-10T20:22:57.593Z,99804.56
2019-06-10T20:25:48.830Z,99809.98
2019-06-10T20:28:38.683Z,99813.55
2019-06-10T20:31:28.605Z,99820.95
2019-06-10T20:34:19.607Z,99822.89
2019-06-10T20:37:13.063Z,99820.64
2019-06-10T20:40:03.733Z,99816.80
2019-06-10T20:42:53.869Z,99814.88
2019-06-10T20:45:46.028Z,99824.42
2019-06-10T20:48:35.535Z,99822.73
2019-06-10T20:51:27.224Z,99827.95
2019-06-10T20:54:16.601Z,99827.72
2019-06-10T20:57:06.565Z,99820.86
2019-06-10T20:59:57.822Z,99806.01
2019-06-10T21:02:49.056Z,99789.00
2019-06-10T21:05:39.667Z,99781.31
2019-06-10T21:08:33.260Z,99781.59
2019-06-10T21:11:23.082Z,99778.34
2019-06-10T21:14:12.500Z,99774.45
2019-06-10T21:17:02.982Z,99765.44
2019-06-10T21:19:53.876Z,99773.62
2019-06-10T21:22:45.872Z,99793.38
2019-06-10T21:25:35.668Z,99799.69
2019-06-10T21:28:25.799Z,99814.78
2019-06-10T21:31:16.033Z,99837.83
2019-06-10T21:34:05.745Z,99855.66
2019-06-10T21:36:55.475Z,99881.46
2019-06-10T21:39:47.753Z,99884.78
2019-06-10T21:42:37.567Z,99882.83
2019-06-10T21:45:27.608Z,99891.33
2019-06-10T21:48:17.374Z,99905.91
2019-06-10T21:51:07.342Z,99902.66
2019-06-10T21:53:57.216Z,99910.08
2019-06-10T21:56:47.197Z,99913.41
2019-06-10T21:59:37.087Z,99922.78
2019-06-10T22:02:26.839Z,99942.08
2019-06-10T22:05:16.871Z,99948.19
2019-06-10T22:08:06.735Z,99937.02
2019-06-10T22:10:56.772Z,99928.52
2019-06-10T22:13:48.042Z,99929.14
2019-06-10T22:16:38.051Z,99932.75
2019-06-10T22:19:29.090Z,99918.17
2019-06-10T22:22:19.167Z,99902.78
2019-06-10T22:25:09.783Z,99906.85
2019-06-10T22:27:59.622Z,99899.45
2019-06-10T22:30:49.703Z,99896.66
2019-06-10T22:33:39.373Z,99890.31
2019-06-10T22:36:29.539Z,99869.42
2019-06-10T22:39:19.230Z,99860.88
2019-06-10T22:42:09.311Z,99855.98
2019-06-10T22:45:00.204Z,99840.08
2019-06-10T22:47:49.720Z,99834.32
2019-06-10T22:50:40.165Z,99843.69
2019-06-10T22:53:30.339Z,99853.02
2019-06-10T22:56:20.082Z,99853.28
2019-06-10T22:59:13.059Z,99864.25
2019-06-10T23:02:03.064Z,99857.68
2019-06-10T23:04:57.307Z,99852.81
2019-06-10T23:07:46.508Z,99841.58
2019-06-10T23:10:36.671Z,99834.72
2019-06-10T23:13:26.793Z,99826.80
2019-06-10T23:16:16.731Z,99835.27
2019-06-10T23:19:07.089Z,99835.03
2019-06-10T23:21:58.174Z,99835.27
2019-06-10T23:24:49.533Z,99834.17
2019-06-10T23:27:41.936Z,99833.34
2019-06-10T23:30:32.995Z,99833.06
2019-06-10T23:33:23.079Z,99830.92
2019-06-10T23:36:13.390Z,99848.48
2019-06-10T23:39:04.013Z,99864.94
2019-06-10T23:41:56.352Z,99874.53
2019-06-10T23:44:46.061Z,99885.50
2019-06-10T23:47:35.923Z,99890.98
2019-06-10T23:50:25.851Z,99901.09
2019-06-10T23:53:15.876Z,99908.22
2019-06-10T23:56:05.581Z,99904.06
2019-06-10T23:58:55.967Z,99904.62
